Time;durP1;ratioP1;P1;durP2;ratioP2;P2;SDS_P1;SDS_P2;PMS_P1;PMS_P2;Temp;Humidity;BMP_temperature;BMP_pressure;BME280_temperature;BME280_humidity;BME280_pressure;Samples;Min_cycle;Max_cycle;Signal;HPM_P1;HPM_P2
2021/08/12 00:01:42;;;;;;;8.38;6.85;;;;;;;27.00;100.00;101138.34;4883209;29;20042;-71
2021/08/12 00:04:29;;;;;;;7.72;6.70;;;;;;;26.93;100.00;101136.28;4882618;29;20071;-71
2021/08/12 00:07:15;;;;;;;9.80;6.85;;;;;;;26.99;100.00;101130.38;4882389;29;20378;-70
2021/08/12 00:10:01;;;;;;;9.50;7.00;;;;;;;27.03;100.00;101134.56;4883652;29;20122;-71
2021/08/12 00:12:46;;;;;;;7.60;6.53;;;;;;;27.08;100.00;101135.03;4883394;29;20029;-70
2021/08/12 00:15:32;;;;;;;8.90;6.45;;;;;;;26.97;100.00;101135.88;4883331;29;20449;-70
2021/08/12 00:18:18;;;;;;;9.10;8.02;;;;;;;26.38;100.00;101141.47;4881532;29;20335;-70
2021/08/12 00:21:03;;;;;;;8.50;7.10;;;;;;;26.88;100.00;101139.31;4883162;29;20116;-71
2021/08/12 00:23:51;;;;;;;7.70;6.43;;;;;;;26.90;100.00;101145.44;4883355;29;20120;-72
2021/08/12 00:26:36;;;;;;;8.00;6.63;;;;;;;27.04;100.00;101152.41;4882773;29;20033;-71
2021/08/12 00:29:23;;;;;;;9.38;6.22;;;;;;;26.57;100.00;101157.91;4883393;29;20096;-70
2021/08/12 00:32:09;;;;;;;9.82;7.03;;;;;;;26.80;100.00;101165.09;4882954;29;20029;-70
2021/08/12 00:34:55;;;;;;;7.80;6.68;;;;;;;26.91;100.00;101165.97;4883587;29;20032;-70
2021/08/12 00:37:41;;;;;;;9.18;6.10;;;;;;;27.02;100.00;101162.44;4881324;29;20037;-70
2021/08/12 00:40:29;;;;;;;11.20;6.85;;;;;;;26.48;100.00;101164.84;4883507;29;20025;-72
2021/08/12 00:43:15;;;;;;;9.70;6.90;;;;;;;26.49;100.00;101168.38;4868063;29;20450;-71
2021/08/12 00:46:01;;;;;;;10.45;6.70;;;;;;;26.72;100.00;101162.97;4881099;29;20415;-71
2021/08/12 00:48:46;;;;;;;7.93;6.80;;;;;;;26.24;100.00;101157.78;4867864;29;20025;-71
2021/08/12 00:51:34;;;;;;;10.90;6.88;;;;;;;26.26;100.00;101164.75;4882943;29;20438;-71
2021/08/12 00:54:20;;;;;;;9.35;7.03;;;;;;;25.93;100.00;101169.06;4882920;29;20146;-71
2021/08/12 01:04:52;;;;;;;8.95;7.25;;;;;;;25.73;100.00;101170.53;5566396;23;20075;-69
2021/08/12 01:08:01;;;;;;;11.18;6.90;;;;;;;25.90;100.00;101171.97;4881443;29;20043;-70
2021/08/12 01:10:54;;;;;;;9.63;7.18;;;;;;;25.47;100.00;101178.75;4881925;29;20044;-70
2021/08/12 01:14:15;;;;;;;10.20;7.22;;;;;;;25.51;100.00;101174.88;4881513;29;20040;-70
2021/08/12 01:17:04;;;;;;;12.10;7.63;;;;;;;25.68;100.00;101177.19;4881662;29;20032;-70
2021/08/12 01:20:05;;;;;;;9.30;7.28;;;;;;;25.37;100.00;101175.88;4881046;29;20433;-70
2021/08/12 01:22:53;;;;;;;9.95;7.28;;;;;;;25.51;100.00;101180.25;4880503;29;20021;-70
2021/08/12 01:31:17;;;;;;;11.15;8.07;;;;;;;25.71;100.00;101182.31;5105033;23;20398;-70
2021/08/12 01:34:28;;;;;;;8.60;7.53;;;;;;;25.34;100.00;101176.06;4886004;29;20024;-70
2021/08/12 01:37:15;;;;;;;9.52;7.55;;;;;;;25.35;100.00;101179.63;4880707;29;20104;-71
2021/08/12 01:40:07;;;;;;;11.27;7.95;;;;;;;24.98;100.00;101167.91;4867183;29;20120;-70
2021/08/12 01:42:55;;;;;;;10.65;7.50;;;;;;;25.28;100.00;101176.50;4887914;29;20043;-70
2021/08/12 01:45:41;;;;;;;9.02;7.63;;;;;;;25.34;100.00;101178.75;4874291;29;20382;-71
2021/08/12 01:48:30;;;;;;;10.23;8.07;;;;;;;25.29;100.00;101185.41;4884781;29;20419;-70
2021/08/12 01:51:15;;;;;;;9.02;7.60;;;;;;;25.53;100.00;101183.66;4885444;29;20033;-69
2021/08/12 01:54:02;;;;;;;31.92;9.90;;;;;;;25.03;100.00;101181.84;4884370;29;20040;-70
2021/08/12 01:56:48;;;;;;;10.05;7.35;;;;;;;25.19;100.00;101178.97;4870528;29;20053;-70
2021/08/12 01:59:37;;;;;;;9.38;7.18;;;;;;;25.26;100.00;101174.84;4884417;29;20101;-70
2021/08/12 02:02:24;;;;;;;8.45;7.30;;;;;;;25.18;100.00;101171.84;4885772;29;20033;-69
2021/08/12 02:05:13;;;;;;;9.45;7.43;;;;;;;24.91;100.00;101161.25;4885634;29;20033;-70
2021/08/12 02:07:58;;;;;;;8.48;7.57;;;;;;;25.00;100.00;101168.63;4886608;29;20470;-69
2021/08/12 02:10:45;;;;;;;8.40;7.18;;;;;;;25.10;100.00;101168.84;4884259;29;20088;-69
2021/08/12 02:13:32;;;;;;;10.80;7.90;;;;;;;24.96;100.00;101168.97;4885038;29;20069;-69
2021/08/12 02:16:18;;;;;;;12.02;7.95;;;;;;;25.14;100.00;101171.22;4885657;29;20415;-69
2021/08/12 02:19:06;;;;;;;9.75;7.80;;;;;;;25.15;100.00;101167.56;4883941;29;20037;-69
2021/08/12 02:22:14;;;;;;;9.02;7.57;;;;;;;24.90;100.00;101172.94;4871240;29;20033;-69
2021/08/12 02:25:08;;;;;;;7.60;6.80;;;;;;;24.88;100.00;101180.25;4885002;29;20044;-69
2021/08/12 02:28:04;;;;;;;12.50;7.07;;;;;;;25.18;100.00;101178.09;4883731;29;20033;-69
2021/08/12 02:30:54;;;;;;;10.10;7.13;;;;;;;24.99;100.00;101176.81;4884523;29;20428;-70
2021/08/12 02:33:44;;;;;;;8.80;6.68;;;;;;;25.05;100.00;101174.56;4884884;29;20044;-69
2021/08/12 02:36:31;;;;;;;9.18;7.35;;;;;;;25.08;100.00;101174.31;4885145;29;20088;-69
2021/08/12 02:39:17;;;;;;;9.65;6.57;;;;;;;25.00;100.00;101170.47;4884870;29;20152;-70
2021/08/12 02:42:04;;;;;;;10.27;6.80;;;;;;;25.12;100.00;101174.97;4883938;29;20032;-70
2021/08/12 02:44:52;;;;;;;9.95;6.53;;;;;;;25.12;100.00;101180.34;4885060;29;20039;-69
2021/08/12 02:47:40;;;;;;;10.18;6.25;;;;;;;25.33;100.00;101192.28;4885134;29;20171;-69
2021/08/12 03:07:08;;;;;;;7.65;6.05;;;;;;;25.41;100.00;101195.28;5050309;23;20056;-71
2021/08/12 03:09:56;;;;;;;10.45;6.20;;;;;;;25.11;100.00;101194.72;4901830;29;20025;-69
2021/08/12 03:12:43;;;;;;;8.85;6.68;;;;;;;25.31;100.00;101194.22;4887517;29;20033;-70
2021/08/12 03:15:29;;;;;;;10.82;5.65;;;;;;;25.29;100.00;101197.00;4898641;29;20033;-70
2021/08/12 03:18:15;;;;;;;8.65;6.68;;;;;;;25.35;100.00;101199.25;4884397;29;20029;-70
2021/08/12 03:21:15;;;;;;;7.93;6.05;;;;;;;25.32;100.00;101203.97;4884326;29;20033;-70
2021/08/12 03:24:04;;;;;;;9.90;6.03;;;;;;;25.40;100.00;101199.75;4884394;29;20028;-70
2021/08/12 03:26:54;;;;;;;12.85;6.38;;;;;;;25.25;100.00;101208.03;4884077;29;20180;-70
2021/08/12 03:29:41;;;;;;;9.52;6.40;;;;;;;25.03;100.00;101214.03;4869515;29;20032;-70
2021/08/12 03:32:29;;;;;;;8.63;6.55;;;;;;;25.05;100.00;101216.59;4884328;29;20036;-71
2021/08/12 03:35:18;;;;;;;10.40;6.20;;;;;;;25.09;100.00;101218.09;4868939;29;20040;-70
2021/08/12 03:38:03;;;;;;;8.90;5.80;;;;;;;25.01;100.00;101217.78;4884082;29;20448;-71
2021/08/12 03:40:50;;;;;;;10.07;6.20;;;;;;;25.31;100.00;101226.41;4884306;29;20059;-71
2021/08/12 03:43:36;;;;;;;7.43;5.90;;;;;;;25.33;100.00;101232.53;4881671;29;20028;-70
2021/08/12 03:46:21;;;;;;;8.75;6.00;;;;;;;25.17;100.00;101234.53;4883576;29;20025;-71
2021/08/12 03:49:07;;;;;;;11.63;6.53;;;;;;;25.41;100.00;101243.56;4881618;29;20076;-70
2021/08/12 03:51:53;;;;;;;10.50;5.93;;;;;;;25.26;100.00;101244.59;4869076;29;20033;-70
2021/08/12 03:54:39;;;;;;;11.18;5.80;;;;;;;25.38;100.00;101246.47;4881457;29;20040;-70
2021/08/12 03:57:25;;;;;;;11.35;6.25;;;;;;;25.17;100.00;101246.13;4883114;29;20044;-70
2021/08/12 04:00:12;;;;;;;6.57;5.88;;;;;;;25.30;100.00;101248.81;4881528;29;20025;-71
2021/08/12 04:02:58;;;;;;;7.63;6.22;;;;;;;25.36;100.00;101249.25;4883195;29;20065;-70
2021/08/12 04:05:44;;;;;;;9.80;5.85;;;;;;;25.50;100.00;101254.53;4871096;29;20075;-71
2021/08/12 04:08:31;;;;;;;9.23;6.03;;;;;;;25.31;100.00;101247.88;4883040;29;20056;-70
2021/08/12 04:11:17;;;;;;;9.32;6.18;;;;;;;25.60;100.00;101257.41;4881907;29;20028;-70
2021/08/12 04:14:02;;;;;;;11.20;5.97;;;;;;;25.67;100.00;101259.53;4882589;29;20029;-70
2021/08/12 04:16:49;;;;;;;11.15;6.05;;;;;;;25.50;100.00;101257.19;4881153;29;20067;-70
2021/08/12 04:19:34;;;;;;;9.48;6.10;;;;;;;25.37;100.00;101252.81;4882308;29;20040;-70
2021/08/12 04:22:20;;;;;;;9.98;6.30;;;;;;;25.49;100.00;101266.22;4881935;29;20036;-71
2021/08/12 04:25:06;;;;;;;7.20;6.10;;;;;;;25.60;100.00;101260.09;4882948;29;20120;-71
2021/08/12 04:27:52;;;;;;;13.38;6.57;;;;;;;25.62;100.00;101261.69;4883469;29;20430;-71
2021/08/12 04:30:38;;;;;;;14.45;6.72;;;;;;;25.29;100.00;101252.47;4880998;29;20017;-71
2021/08/12 04:33:24;;;;;;;10.75;6.63;;;;;;;25.42;100.00;101254.19;4883118;29;20036;-70
2021/08/12 04:36:10;;;;;;;7.90;6.07;;;;;;;25.54;100.00;101265.88;4882946;29;20044;-70
2021/08/12 04:38:56;;;;;;;13.00;6.15;;;;;;;25.55;100.00;101273.00;4882813;29;20093;-70
2021/08/12 04:42:00;;;;;;;8.38;6.30;;;;;;;25.54;100.00;101276.63;4882865;29;20362;-69
2021/08/12 04:44:45;;;;;;;9.98;5.97;;;;;;;25.51;100.00;101266.97;4882677;29;20039;-69
2021/08/12 04:47:31;;;;;;;12.15;6.38;;;;;;;25.72;100.00;101286.06;4880479;29;20036;-69
2021/08/12 04:50:17;;;;;;;10.10;6.63;;;;;;;25.83;100.00;101283.47;4882311;29;20358;-70
2021/08/12 04:53:03;;;;;;;8.15;6.30;;;;;;;25.82;100.00;101284.44;4882660;29;20099;-69
2021/08/12 04:55:49;;;;;;;12.73;6.80;;;;;;;26.02;100.00;101286.56;4882309;29;20414;-69
2021/08/12 04:58:35;;;;;;;9.30;6.50;;;;;;;25.83;100.00;101294.19;4880211;29;20116;-69
2021/08/12 05:01:20;;;;;;;12.18;6.78;;;;;;;25.70;100.00;101290.66;4880559;29;20033;-69
2021/08/12 05:07:23;;;;;;;8.07;6.20;;;;;;;26.08;100.00;101284.31;5641406;23;20097;-69
2021/08/12 05:10:09;;;;;;;10.50;6.32;;;;;;;26.07;100.00;101293.34;4900106;29;20051;-69
2021/08/12 05:12:55;;;;;;;11.25;6.55;;;;;;;25.95;100.00;101306.78;4900337;29;20032;-70
2021/08/12 05:15:40;;;;;;;8.05;6.28;;;;;;;26.02;100.00;101295.50;4893876;29;20089;-70
2021/08/12 05:18:26;;;;;;;11.75;6.82;;;;;;;26.02;100.00;101294.63;4880011;29;20037;-69
2021/08/12 05:21:12;;;;;;;11.57;6.93;;;;;;;26.30;100.00;101300.59;4882194;29;20343;-70
2021/08/12 05:23:58;;;;;;;10.30;7.13;;;;;;;26.18;100.00;101308.69;4882174;29;20053;-69
2021/08/12 05:26:43;;;;;;;10.85;6.85;;;;;;;26.29;100.00;101306.06;4882267;29;20119;-69
2021/08/12 05:29:29;;;;;;;10.52;6.40;;;;;;;26.35;100.00;101302.91;4882549;29;20469;-69
2021/08/12 05:32:15;;;;;;;13.52;6.80;;;;;;;26.62;100.00;101308.97;4881292;29;20033;-68
2021/08/12 05:35:02;;;;;;;11.70;6.45;;;;;;;26.24;100.00;101309.09;4881489;29;20039;-69
2021/08/12 05:37:48;;;;;;;9.93;6.55;;;;;;;26.30;100.00;101314.03;4879429;29;20036;-70
2021/08/12 05:40:34;;;;;;;8.00;6.22;;;;;;;26.50;100.00;101316.09;4881086;29;20056;-70
2021/08/12 05:43:20;;;;;;;12.38;6.57;;;;;;;26.61;100.00;101309.97;4866513;29;20029;-70
2021/08/12 05:46:05;;;;;;;13.07;6.68;;;;;;;26.21;100.00;101311.16;4879876;29;20112;-70
2021/08/12 05:48:51;;;;;;;11.07;6.82;;;;;;;26.38;100.00;101311.63;4881783;29;20112;-70
2021/08/12 05:51:40;;;;;;;12.20;6.93;;;;;;;26.55;100.00;101323.81;4879897;29;20037;-70
2021/08/12 05:54:26;;;;;;;12.13;6.65;;;;;;;26.69;100.00;101315.63;4867297;29;20033;-70
2021/08/12 06:00:54;;;;;;;13.90;6.90;;;;;;;26.90;100.00;101314.00;4978899;23;20045;-72
2021/08/12 06:03:39;;;;;;;10.13;6.82;;;;;;;26.85;100.00;101311.66;4899999;29;20041;-72
2021/08/12 06:06:25;;;;;;;10.18;6.80;;;;;;;26.76;100.00;101311.53;4887386;29;20447;-72
2021/08/12 06:09:11;;;;;;;10.65;6.95;;;;;;;27.10;100.00;101305.28;4881142;29;20032;-72
2021/08/12 06:11:57;;;;;;;12.25;6.90;;;;;;;27.12;100.00;101316.75;4881798;29;20316;-71
2021/08/12 06:14:42;;;;;;;11.00;7.38;;;;;;;27.44;100.00;101316.03;4880497;29;20025;-72
2021/08/12 06:17:28;;;;;;;11.23;7.15;;;;;;;27.58;100.00;101309.59;4881487;29;20037;-72
2021/08/12 06:20:18;;;;;;;11.48;6.90;;;;;;;27.37;100.00;101308.56;4866086;29;20068;-72
2021/08/12 06:23:07;;;;;;;12.27;7.03;;;;;;;27.43;100.00;101322.41;4880038;29;20045;-73
2021/08/12 06:25:54;;;;;;;12.75;7.28;;;;;;;27.42;100.00;101320.72;4881413;29;20056;-73
2021/08/12 06:28:40;;;;;;;12.73;7.10;;;;;;;27.31;100.00;101323.38;4868484;29;20033;-72
2021/08/12 06:31:26;;;;;;;10.93;7.45;;;;;;;27.93;100.00;101329.25;4881365;29;20029;-73
2021/08/12 06:34:12;;;;;;;13.50;7.18;;;;;;;27.58;100.00;101322.19;4881507;29;20419;-72
2021/08/12 06:36:58;;;;;;;12.35;6.38;;;;;;;27.86;100.00;101327.13;4883835;29;20096;-73
2021/08/12 06:39:43;;;;;;;10.57;7.20;;;;;;;28.31;100.00;101329.69;4884167;29;20040;-73
2021/08/12 06:42:29;;;;;;;10.48;7.03;;;;;;;28.42;100.00;101329.72;4887407;29;20111;-70
2021/08/12 06:45:25;;;;;;;10.88;6.88;;;;;;;28.46;100.00;101328.47;4885052;29;20068;-72
2021/08/12 06:48:11;;;;;;;8.93;6.75;;;;;;;28.46;100.00;101333.00;4874275;29;20418;-71
2021/08/12 06:51:00;;;;;;;14.02;7.05;;;;;;;28.29;100.00;101326.25;4883127;29;20101;-70
2021/08/12 06:53:48;;;;;;;10.85;7.00;;;;;;;28.28;100.00;101345.28;4885353;29;20053;-70
2021/08/12 06:56:34;;;;;;;9.63;6.68;;;;;;;28.36;100.00;101348.19;4870941;29;20038;-70
2021/08/12 06:59:23;;;;;;;8.95;7.00;;;;;;;28.07;100.00;101336.19;4884919;29;20044;-70
2021/08/12 07:02:18;;;;;;;11.27;6.95;;;;;;;28.53;100.00;101332.38;4869816;29;20076;-70
2021/08/12 07:05:04;;;;;;;11.32;6.75;;;;;;;28.76;100.00;101331.31;4885285;29;20494;-72
2021/08/12 07:07:50;;;;;;;12.00;7.03;;;;;;;28.80;100.00;101327.38;4883469;29;20503;-70
2021/08/12 07:10:38;;;;;;;10.93;6.57;;;;;;;28.97;100.00;101332.22;4884633;29;20032;-73
2021/08/12 07:13:24;;;;;;;10.00;7.53;;;;;;;29.29;99.87;101329.53;4883156;29;20033;-73
2021/08/12 07:16:14;;;;;;;9.98;6.50;;;;;;;29.24;97.93;101338.03;4884984;29;20425;-71
2021/08/12 07:19:00;;;;;;;9.93;6.80;;;;;;;29.00;100.00;101332.00;4869523;29;20047;-70
2021/08/12 07:24:58;;;;;;;10.35;6.97;;;;;;;28.98;100.00;101325.88;4873046;29;20427;-71
2021/08/12 07:27:48;;;;;;;10.18;7.40;;;;;;;28.89;100.00;101334.72;4885401;29;20457;-71
2021/08/12 07:30:34;;;;;;;11.02;6.80;;;;;;;29.05;100.00;101337.03;4869848;29;20025;-71
2021/08/12 07:33:23;;;;;;;10.32;6.65;;;;;;;29.44;97.71;101339.88;4885151;29;20444;-71
2021/08/12 07:36:09;;;;;;;9.40;7.03;;;;;;;29.76;95.61;101350.63;4870712;29;20462;-73
2021/08/12 07:38:55;;;;;;;9.10;6.57;;;;;;;29.78;96.80;101348.66;4884115;29;20049;-73
2021/08/12 07:41:42;;;;;;;9.75;6.80;;;;;;;29.80;96.58;101342.13;4881529;29;20077;-73
2021/08/12 07:44:36;;;;;;;9.52;6.40;;;;;;;30.04;93.52;101345.38;4884715;29;20542;-70
2021/08/12 07:47:22;;;;;;;12.65;7.22;;;;;;;30.14;94.02;101343.56;4882363;29;20029;-72
2021/08/12 07:50:11;;;;;;;10.35;6.97;;;;;;;30.02;95.08;101343.78;4881853;29;20033;-72
2021/08/12 07:52:57;;;;;;;13.27;6.95;;;;;;;30.15;93.85;101349.84;4882831;29;20044;-72
2021/08/12 07:55:45;;;;;;;10.38;7.20;;;;;;;30.26;93.77;101347.06;4869835;29;20040;-70
2021/08/12 07:58:34;;;;;;;10.95;7.40;;;;;;;30.35;93.24;101347.09;4883261;29;20029;-70
2021/08/12 08:01:25;;;;;;;10.23;6.60;;;;;;;30.54;89.36;101346.28;4882210;29;20053;-73
2021/08/12 08:04:12;;;;;;;8.43;6.50;;;;;;;30.38;90.20;101343.25;4884297;29;20343;-70
2021/08/12 08:06:59;;;;;;;8.35;6.25;;;;;;;30.78;86.31;101350.31;4883544;29;20033;-70
2021/08/12 08:09:46;;;;;;;7.60;6.35;;;;;;;31.35;82.69;101333.28;4882246;29;20060;-73
2021/08/12 08:12:32;;;;;;;9.70;6.63;;;;;;;31.49;81.53;101337.38;4870148;29;20029;-72
2021/08/12 08:15:22;;;;;;;14.43;6.65;;;;;;;31.66;81.74;101342.88;4882106;29;20041;-73
2021/08/12 08:18:11;;;;;;;10.02;6.78;;;;;;;32.09;79.19;101343.19;4884003;29;20418;-70
2021/08/12 08:20:57;;;;;;;8.43;6.10;;;;;;;31.83;75.86;101349.44;4882001;29;20037;-69
2021/08/12 08:23:54;;;;;;;13.35;6.75;;;;;;;32.02;74.97;101346.69;4882903;29;20049;-72
2021/08/12 08:26:40;;;;;;;11.38;6.43;;;;;;;32.21;73.51;101342.00;5008608;23;20060;-70
2021/08/12 08:29:26;;;;;;;10.95;6.45;;;;;;;32.52;72.89;101346.16;4901131;29;20035;-70
2021/08/12 08:32:11;;;;;;;12.05;6.68;;;;;;;32.80;70.99;101341.53;4900470;29;20032;-70
2021/08/12 08:34:57;;;;;;;11.48;5.80;;;;;;;33.34;68.40;101338.69;4900516;29;20032;-70
2021/08/12 08:37:46;;;;;;;10.63;6.10;;;;;;;33.08;68.57;101337.78;4882840;29;20455;-70
2021/08/12 08:40:34;;;;;;;7.60;6.32;;;;;;;33.43;67.35;101335.06;4881721;29;20044;-70
2021/08/12 08:43:21;;;;;;;9.85;6.30;;;;;;;32.73;72.33;101337.72;4867909;29;20080;-71
2021/08/12 08:46:07;;;;;;;7.75;5.97;;;;;;;33.46;65.78;101322.00;4882899;29;20068;-71
2021/08/12 08:48:56;;;;;;;9.15;6.13;;;;;;;33.12;66.46;101341.88;4882730;29;20052;-74
2021/08/12 08:51:42;;;;;;;11.18;6.00;;;;;;;33.01;66.35;101339.41;4882535;29;20029;-73
2021/08/12 08:54:28;;;;;;;10.82;6.32;;;;;;;33.36;64.56;101342.13;4880627;29;20459;-74
2021/08/12 08:57:14;;;;;;;9.50;5.93;;;;;;;33.29;65.61;101336.44;4882421;29;20108;-74
2021/08/12 09:00:01;;;;;;;7.53;5.82;;;;;;;33.25;66.66;101343.19;4868094;29;20036;-74
2021/08/12 09:02:48;;;;;;;9.88;5.95;;;;;;;33.72;64.58;101341.03;4882424;29;20040;-72
2021/08/12 09:05:35;;;;;;;10.95;6.45;;;;;;;33.87;64.12;101337.56;4882700;29;20056;-73
2021/08/12 09:08:21;;;;;;;12.57;5.93;;;;;;;34.20;62.58;101344.88;4881041;29;20029;-73
2021/08/12 09:11:07;;;;;;;13.00;6.50;;;;;;;34.19;60.64;101340.47;4882280;29;20446;-73
2021/08/12 09:13:53;;;;;;;7.57;5.70;;;;;;;34.36;60.12;101338.72;4881833;29;20043;-73
2021/08/12 09:16:40;;;;;;;8.85;5.60;;;;;;;34.42;60.04;101341.63;4868151;29;20054;-73
2021/08/12 09:19:28;;;;;;;12.65;6.57;;;;;;;34.37;61.11;101343.13;4880241;29;20530;-73
2021/08/12 09:22:13;;;;;;;10.55;6.22;;;;;;;33.62;62.79;101343.84;4868745;29;20482;-74
2021/08/12 09:30:16;;;;;;;7.90;5.63;;;;;;;34.45;59.65;101341.28;4970425;23;20052;-74
2021/08/12 09:33:02;;;;;;;8.43;5.50;;;;;;;34.49;58.58;101339.09;4900094;29;20056;-73
2021/08/12 09:35:51;;;;;;;12.57;6.30;;;;;;;34.56;57.99;101335.53;4879058;29;20116;-72
2021/08/12 09:38:40;;;;;;;9.30;6.10;;;;;;;34.33;56.84;101333.59;4882551;29;20563;-71
2021/08/12 09:41:45;;;;;;;11.65;6.03;;;;;;;34.04;58.61;101331.19;4880742;29;20039;-70
2021/08/12 09:44:52;;;;;;;10.73;6.22;;;;;;;33.82;58.22;101325.47;4882119;29;20035;-73
2021/08/12 09:47:38;;;;;;;9.13;5.82;;;;;;;33.66;58.87;101320.78;4881126;29;20029;-73
2021/08/12 09:54:06;;;;;;;8.02;6.00;;;;;;;34.00;58.09;101326.28;4883219;29;20037;-74
2021/08/12 09:56:51;;;;;;;12.55;7.40;;;;;;;34.12;56.84;101323.06;4880825;29;20120;-74
2021/08/12 09:59:49;;;;;;;13.00;6.85;;;;;;;33.74;58.33;101322.66;4881357;29;20041;-71
2021/08/12 10:02:35;;;;;;;9.02;6.07;;;;;;;33.73;60.24;101326.41;4867386;29;20103;-70
2021/08/12 10:05:21;;;;;;;8.60;6.30;;;;;;;34.00;60.43;101332.53;4881894;29;20419;-70
2021/08/12 10:08:07;;;;;;;8.65;6.68;;;;;;;33.96;58.00;101325.72;4865888;29;20037;-72
2021/08/12 10:11:14;;;;;;;12.63;8.35;;;;;;;34.12;58.34;101322.25;4866719;29;20029;-71
2021/08/12 10:14:03;;;;;;;10.98;6.38;;;;;;;33.73;58.06;101318.25;4885071;29;20048;-70
2021/08/12 10:16:49;;;;;;;9.30;5.95;;;;;;;33.64;57.82;101309.22;4885441;29;20373;-70
2021/08/12 10:19:35;;;;;;;10.52;7.03;;;;;;;33.89;55.76;101313.81;4884821;29;20172;-70
2021/08/12 10:22:21;;;;;;;14.38;12.85;;;;;;;33.86;57.02;101308.69;4883767;29;20085;-70
2021/08/12 10:25:07;;;;;;;10.52;7.22;;;;;;;33.92;57.02;101310.78;4884252;29;20481;-73
2021/08/12 13:11:11;;;;;;;10.63;7.97;;;;;;;37.07;38.79;101205.41;5805554;23;20067;-72
2021/08/12 13:14:12;;;;;;;12.90;5.68;;;;;;;37.12;38.37;101205.69;4886327;29;20088;-73
2021/08/12 13:16:58;;;;;;;8.43;5.65;;;;;;;37.35;37.05;101191.97;4884016;29;20033;-74
2021/08/12 13:19:44;;;;;;;7.93;5.40;;;;;;;36.62;37.16;101193.66;4881973;29;20025;-74
2021/08/12 13:22:48;;;;;;;8.38;5.63;;;;;;;37.12;36.44;101202.13;4880854;29;20028;-74
2021/08/12 13:25:34;;;;;;;6.78;4.88;;;;;;;36.55;37.16;101196.28;4867396;29;20037;-74
2021/08/12 13:28:32;;;;;;;8.95;5.32;;;;;;;36.58;36.92;101198.66;4882130;29;20585;-74
2021/08/12 13:31:18;;;;;;;7.30;5.20;;;;;;;36.44;36.87;101195.84;4882011;29;20479;-74
2021/08/12 13:34:04;;;;;;;6.13;5.15;;;;;;;36.99;36.69;101196.44;4880092;29;20041;-74
2021/08/12 13:36:50;;;;;;;6.95;4.82;;;;;;;37.39;35.57;101191.44;4881735;29;20047;-74
2021/08/12 13:39:36;;;;;;;7.85;5.18;;;;;;;37.23;36.25;101188.88;4882483;29;20036;-74
2021/08/12 13:42:21;;;;;;;9.27;5.13;;;;;;;37.13;35.74;101184.69;4882417;29;20028;-71
2021/08/12 13:45:08;;;;;;;8.93;5.30;;;;;;;36.73;36.46;101180.47;4867115;29;20112;-72
2021/08/12 13:47:54;;;;;;;5.60;5.00;;;;;;;37.18;36.01;101183.13;4882476;29;20352;-72
2021/08/12 13:50:43;;;;;;;6.00;4.82;;;;;;;37.49;35.87;101182.94;4885217;29;20408;-72
2021/08/12 13:53:47;;;;;;;6.70;5.40;;;;;;;37.63;35.38;101184.84;4883294;29;20380;-71
2021/08/12 13:56:33;;;;;;;6.70;5.47;;;;;;;36.67;36.01;101175.69;4881218;29;20061;-71
2021/08/12 13:59:20;;;;;;;6.03;5.32;;;;;;;36.94;36.21;101175.13;4880629;29;20044;-71
2021/08/12 14:02:06;;;;;;;10.07;5.57;;;;;;;36.31;36.86;101176.50;4882241;29;20434;-71
2021/08/12 14:04:52;;;;;;;6.57;4.75;;;;;;;36.74;36.05;101168.50;4868268;29;20047;-72
2021/08/12 14:08:02;;;;;;;6.57;5.30;;;;;;;37.30;36.66;101178.03;4867559;29;20029;-74
2021/08/12 14:10:49;;;;;;;8.60;5.78;;;;;;;37.47;36.56;101177.66;4879993;29;20366;-74
2021/08/12 14:13:35;;;;;;;6.57;5.68;;;;;;;36.76;37.25;101171.88;4879769;29;20033;-74
2021/08/12 14:16:22;;;;;;;9.75;5.97;;;;;;;36.26;37.10;101159.81;4866384;29;20033;-73
2021/08/12 14:19:09;;;;;;;11.10;5.95;;;;;;;36.02;37.80;101159.94;4885454;29;20043;-73
2021/08/12 14:21:55;;;;;;;9.02;5.82;;;;;;;35.50;39.11;101162.38;4888838;29;20052;-74
2021/08/12 14:24:40;;;;;;;8.48;6.18;;;;;;;35.65;38.96;101165.22;4881778;29;20032;-73
2021/08/12 14:27:26;;;;;;;9.20;6.05;;;;;;;35.02;39.72;101159.75;4882062;29;20543;-74
2021/08/12 14:30:13;;;;;;;11.18;5.90;;;;;;;35.46;39.07;101163.75;4882302;29;20434;-73
2021/08/12 14:33:02;;;;;;;8.18;6.47;;;;;;;35.12;39.32;101157.72;4881972;29;20089;-73
2021/08/12 14:35:48;;;;;;;16.05;12.02;;;;;;;35.49;40.49;101163.41;4882365;29;20450;-74
2021/08/12 14:38:36;;;;;;;13.70;7.43;;;;;;;34.63;40.74;101159.59;4880202;29;20036;-72
2021/08/12 14:41:22;;;;;;;9.05;5.68;;;;;;;34.33;41.22;101149.41;4881746;29;20033;-74
2021/08/12 14:44:10;;;;;;;7.18;5.38;;;;;;;34.10;42.44;101169.19;4880295;29;20036;-72
2021/08/12 14:46:55;;;;;;;8.52;5.20;;;;;;;33.88;42.90;101172.56;4880637;29;20032;-73
2021/08/12 14:49:41;;;;;;;8.50;6.03;;;;;;;33.90;43.46;101216.75;4880111;29;20088;-73
2021/08/12 14:52:27;;;;;;;80.57;10.13;;;;;;;32.73;56.40;101250.84;4879430;29;20074;-73
2021/08/12 14:55:13;;;;;;;39.90;7.25;;;;;;;31.54;69.65;101265.47;4879673;29;20370;-72
2021/08/12 14:57:59;;;;;;;27.58;7.22;;;;;;;30.69;83.74;101275.41;4882858;29;20041;-73
2021/08/12 15:00:46;;;;;;;38.53;6.95;;;;;;;29.48;100.00;101276.50;4884734;29;20104;-73
2021/08/12 15:03:32;;;;;;;17.95;6.68;;;;;;;28.41;100.00;101310.94;4870182;29;20084;-71
2021/08/12 15:06:17;;;;;;;9.55;6.05;;;;;;;27.74;100.00;101334.34;4869580;29;20394;-74
2021/08/12 15:09:03;;;;;;;20.95;7.15;;;;;;;26.89;100.00;101341.88;4885060;29;20025;-73
2021/08/12 15:11:49;;;;;;;20.35;8.88;;;;;;;26.10;100.00;101348.66;4869572;29;20049;-74
2021/08/12 15:14:36;;;;;;;13.20;6.80;;;;;;;25.90;100.00;101349.19;4869086;29;20410;-73
2021/08/12 15:17:21;;;;;;;13.80;7.93;;;;;;;26.24;100.00;101322.50;4883706;29;20041;-73
2021/08/12 15:20:08;;;;;;;18.80;8.82;;;;;;;26.42;100.00;101270.13;4868287;29;20036;-73
2021/08/12 15:22:54;;;;;;;20.10;9.05;;;;;;;26.05;100.00;101238.88;4884142;29;20462;-73
2021/08/12 15:25:40;;;;;;;17.60;9.05;;;;;;;26.10;100.00;101246.59;4882438;29;20032;-72
2021/08/12 15:28:26;;;;;;;16.90;9.10;;;;;;;26.81;100.00;101229.50;4869556;29;20033;-72
2021/08/12 15:31:12;;;;;;;11.80;7.70;;;;;;;27.17;100.00;101223.13;4883921;29;20025;-73
2021/08/12 15:33:57;;;;;;;10.05;6.25;;;;;;;27.51;100.00;101216.81;4883049;29;20431;-73
2021/08/12 15:36:43;;;;;;;9.57;6.53;;;;;;;27.92;100.00;101218.91;4881726;29;20025;-73
2021/08/12 15:39:29;;;;;;;8.75;6.35;;;;;;;28.23;100.00;101213.56;4868632;29;20060;-72
2021/08/12 15:42:15;;;;;;;7.95;6.40;;;;;;;28.76;100.00;101215.34;4884018;29;20043;-73
2021/08/12 15:45:04;;;;;;;10.88;7.05;;;;;;;28.86;100.00;101210.00;4884291;29;20020;-73
2021/08/12 15:47:50;;;;;;;8.13;6.50;;;;;;;29.35;100.00;101205.66;4882955;29;20100;-73
2021/08/12 15:50:38;;;;;;;9.60;7.05;;;;;;;29.36;100.00;101215.47;4881623;29;20040;-73
2021/08/12 15:53:23;;;;;;;9.50;6.90;;;;;;;29.74;100.00;101215.66;4870439;29;20040;-73
2021/08/12 15:56:09;;;;;;;8.55;6.80;;;;;;;29.43;100.00;101213.94;4883541;29;20039;-74
2021/08/12 15:58:55;;;;;;;8.88;7.50;;;;;;;29.93;100.00;101206.78;4884055;29;20097;-73
2021/08/12 16:01:41;;;;;;;9.23;7.30;;;;;;;30.09;100.00;101207.94;4882162;29;20040;-72
2021/08/12 16:04:27;;;;;;;10.93;6.30;;;;;;;30.31;100.00;101214.97;4869275;29;20021;-73
2021/08/12 16:07:13;;;;;;;9.13;5.97;;;;;;;30.17;100.00;101207.25;4880866;29;20037;-72
2021/08/12 16:09:58;;;;;;;6.90;6.03;;;;;;;30.54;100.00;101208.31;4867566;29;20447;-73
2021/08/12 16:12:45;;;;;;;7.70;5.93;;;;;;;30.61;100.00;101215.72;4885200;29;20064;-73
2021/08/12 16:15:31;;;;;;;13.75;5.70;;;;;;;30.12;100.00;101232.00;4884773;29;20108;-73
2021/08/12 16:18:16;;;;;;;13.40;8.60;;;;;;;29.94;100.00;101239.03;4882426;29;20129;-73
2021/08/12 16:21:02;;;;;;;12.45;6.15;;;;;;;29.88;100.00;101255.81;4881211;29;20438;-74
2021/08/12 16:23:48;;;;;;;7.53;5.82;;;;;;;29.97;100.00;101256.88;4883205;29;20379;-73